sensor_id;sensor_type;location;lat;lon;timestamp;pressure;altitude;pressure_sealevel;temperature;humidity
67052;BME280;53957;47.222;18.670;2023-06-22T05:52:25;100495.19;;;25.71;100.00
67052;BME280;53957;47.222;18.670;2023-06-22T05:55:28;100492.78;;;26.22;100.00
67052;BME280;53957;47.222;18.670;2023-06-22T05:58:31;100489.91;;;24.66;100.00
67052;BME280;53957;47.222;18.670;2023-06-22T06:01:34;100494.63;;;25.48;100.00
67052;BME280;53957;47.222;18.670;2023-06-22T06:04:38;100492.66;;;25.48;100.00
67052;BME280;53957;47.222;18.670;2023-06-22T06:07:45;100490.53;;;26.46;95.42
67052;BME280;53957;47.222;18.670;2023-06-22T06:10:51;100490.66;;;26.75;96.37
67052;BME280;53957;47.222;18.670;2023-06-22T06:13:56;100491.06;;;26.84;92.81
67052;BME280;53957;47.222;18.670;2023-06-22T06:16:59;100488.37;;;27.02;92.50
67052;BME280;53957;47.222;18.670;2023-06-22T06:20:01;100487.09;;;25.86;95.92
67052;BME280;53957;47.222;18.670;2023-06-22T06:23:07;100492.69;;;27.21;88.50
67052;BME280;53957;47.222;18.670;2023-06-22T06:26:10;100488.37;;;27.38;84.44
67052;BME280;53957;47.222;18.670;2023-06-22T06:29:33;100495.44;;;27.14;89.27
67052;BME280;53957;47.222;18.670;2023-06-22T06:32:35;100483.31;;;27.11;87.83
67052;BME280;53957;47.222;18.670;2023-06-22T06:35:38;100490.75;;;27.51;84.60
67052;BME280;53957;47.222;18.670;2023-06-22T06:38:41;100489.13;;;27.03;92.24
67052;BME280;53957;47.222;18.670;2023-06-22T06:41:44;100487.59;;;27.59;88.72
67052;BME280;53957;47.222;18.670;2023-06-22T06:44:49;100493.09;;;27.74;84.48
67052;BME280;53957;47.222;18.670;2023-06-22T06:47:52;100491.47;;;28.02;86.36
67052;BME280;53957;47.222;18.670;2023-06-22T06:50:55;100487.09;;;28.30;84.03
67052;BME280;53957;47.222;18.670;2023-06-22T06:53:58;100480.06;;;29.03;73.27
67052;BME280;53957;47.222;18.670;2023-06-22T06:57:01;100484.50;;;29.80;70.60
67052;BME280;53957;47.222;18.670;2023-06-22T07:00:10;100486.47;;;30.52;65.64
67052;BME280;53957;47.222;18.670;2023-06-22T07:03:14;100484.81;;;31.37;58.00
67052;BME280;53957;47.222;18.670;2023-06-22T07:06:18;100484.25;;;30.40;63.18
67052;BME280;53957;47.222;18.670;2023-06-22T07:09:20;100481.72;;;30.22;64.59
67052;BME280;53957;47.222;18.670;2023-06-22T07:12:23;100489.72;;;32.14;52.38
67052;BME280;53957;47.222;18.670;2023-06-22T07:15:26;100485.34;;;31.76;55.39
67052;BME280;53957;47.222;18.670;2023-06-22T07:18:29;100472.44;;;30.98;57.17
67052;BME280;53957;47.222;18.670;2023-06-22T07:21:33;100473.84;;;29.90;59.23
67052;BME280;53957;47.222;18.670;2023-06-22T07:24:36;100472.66;;;28.07;70.65
67052;BME280;53957;47.222;18.670;2023-06-22T07:27:46;100476.06;;;30.02;63.85
67052;BME280;53957;47.222;18.670;2023-06-22T07:30:59;100481.91;;;30.97;57.24
67052;BME280;53957;47.222;18.670;2023-06-22T07:34:02;100472.06;;;30.41;66.42
67052;BME280;53957;47.222;18.670;2023-06-22T07:37:05;100479.53;;;30.95;56.81
67052;BME280;53957;47.222;18.670;2023-06-22T07:40:08;100477.19;;;30.39;58.98
67052;BME280;53957;47.222;18.670;2023-06-22T07:43:12;100479.78;;;30.19;65.60
67052;BME280;53957;47.222;18.670;2023-06-22T07:46:15;100472.13;;;30.03;62.10
67052;BME280;53957;47.222;18.670;2023-06-22T07:49:20;100474.78;;;30.72;61.39
67052;BME280;53957;47.222;18.670;2023-06-22T07:52:23;100468.38;;;28.88;64.47
67052;BME280;53957;47.222;18.670;2023-06-22T07:55:26;100465.16;;;29.49;61.58
67052;BME280;53957;47.222;18.670;2023-06-22T07:58:29;100465.72;;;28.77;65.66
67052;BME280;53957;47.222;18.670;2023-06-22T08:01:32;100464.97;;;30.09;61.77
67052;BME280;53957;47.222;18.670;2023-06-22T08:04:35;100461.22;;;30.58;60.64
67052;BME280;53957;47.222;18.670;2023-06-22T08:07:38;100453.66;;;30.34;61.19
67052;BME280;53957;47.222;18.670;2023-06-22T08:10:41;100454.00;;;30.67;63.32
67052;BME280;53957;47.222;18.670;2023-06-22T08:13:44;100458.91;;;30.56;59.32
67052;BME280;53957;47.222;18.670;2023-06-22T08:16:47;100463.13;;;31.39;57.13
67052;BME280;53957;47.222;18.670;2023-06-22T08:19:50;100449.59;;;29.77;60.07
67052;BME280;53957;47.222;18.670;2023-06-22T08:22:55;100451.31;;;30.33;60.41
67052;BME280;53957;47.222;18.670;2023-06-22T08:25:58;100445.19;;;30.52;60.99
67052;BME280;53957;47.222;18.670;2023-06-22T08:29:04;100452.09;;;30.92;58.53
67052;BME280;53957;47.222;18.670;2023-06-22T08:32:08;100450.75;;;31.00;59.58
67052;BME280;53957;47.222;18.670;2023-06-22T08:35:11;100452.53;;;31.38;58.20
67052;BME280;53957;47.222;18.670;2023-06-22T08:38:14;100447.00;;;31.82;59.97
67052;BME280;53957;47.222;18.670;2023-06-22T08:41:18;100455.88;;;30.12;60.42
67052;BME280;53957;47.222;18.670;2023-06-22T08:44:21;100449.31;;;31.19;63.67
67052;BME280;53957;47.222;18.670;2023-06-22T08:47:46;100444.97;;;31.66;55.26
67052;BME280;53957;47.222;18.670;2023-06-22T08:50:48;100441.44;;;30.04;63.38
67052;BME280;53957;47.222;18.670;2023-06-22T08:53:51;100434.69;;;29.75;67.80
67052;BME280;53957;47.222;18.670;2023-06-22T08:56:54;100439.12;;;30.89;64.17
67052;BME280;53957;47.222;18.670;2023-06-22T08:59:57;100432.88;;;29.99;64.97
67052;BME280;53957;47.222;18.670;2023-06-22T09:03:02;100421.31;;;30.73;64.15
67052;BME280;53957;47.222;18.670;2023-06-22T09:06:06;100418.62;;;30.39;61.91
67052;BME280;53957;47.222;18.670;2023-06-22T09:09:09;100419.91;;;30.85;62.25
67052;BME280;53957;47.222;18.670;2023-06-22T09:12:12;100422.12;;;32.25;56.78
67052;BME280;53957;47.222;18.670;2023-06-22T09:48:19;100397.75;;;31.40;60.55
67052;BME280;53957;47.222;18.670;2023-06-22T09:51:22;100398.69;;;30.86;61.53
67052;BME280;53957;47.222;18.670;2023-06-22T09:54:26;100403.59;;;31.66;63.14
67052;BME280;53957;47.222;18.670;2023-06-22T09:57:29;100401.12;;;32.11;53.34
67052;BME280;53957;47.222;18.670;2023-06-22T10:00:32;100400.03;;;30.97;58.19
67052;BME280;53957;47.222;18.670;2023-06-22T10:03:36;100395.63;;;31.71;61.04
67052;BME280;53957;47.222;18.670;2023-06-22T10:06:39;100395.03;;;31.60;58.24
67052;BME280;53957;47.222;18.670;2023-06-22T10:09:44;100398.97;;;31.99;61.81
67052;BME280;53957;47.222;18.670;2023-06-22T10:12:55;100394.47;;;32.62;54.94
67052;BME280;53957;47.222;18.670;2023-06-22T10:15:59;100394.59;;;32.22;55.45
67052;BME280;53957;47.222;18.670;2023-06-22T10:19:02;100395.88;;;31.57;58.43
67052;BME280;53957;47.222;18.670;2023-06-22T10:22:05;100393.94;;;31.34;59.07
67052;BME280;53957;47.222;18.670;2023-06-22T10:25:09;100392.38;;;31.76;60.06
67052;BME280;53957;47.222;18.670;2023-06-22T10:28:13;100387.59;;;31.57;56.23
67052;BME280;53957;47.222;18.670;2023-06-22T10:31:17;100381.00;;;32.11;56.26
67052;BME280;53957;47.222;18.670;2023-06-22T10:34:20;100386.44;;;32.15;54.66
67052;BME280;53957;47.222;18.670;2023-06-22T10:37:23;100384.97;;;32.10;57.80
67052;BME280;53957;47.222;18.670;2023-06-22T10:40:26;100381.44;;;31.49;61.79
67052;BME280;53957;47.222;18.670;2023-06-22T10:43:29;100379.22;;;31.64;59.59
67052;BME280;53957;47.222;18.670;2023-06-22T10:46:33;100376.88;;;31.19;57.97
67052;BME280;53957;47.222;18.670;2023-06-22T10:49:35;100371.16;;;32.10;58.10
67052;BME280;53957;47.222;18.670;2023-06-22T10:52:39;100369.59;;;31.08;60.55
67052;BME280;53957;47.222;18.670;2023-06-22T10:55:42;100366.69;;;32.36;59.72
67052;BME280;53957;47.222;18.670;2023-06-22T10:58:59;100374.69;;;33.13;57.47
67052;BME280;53957;47.222;18.670;2023-06-22T11:02:02;100374.34;;;33.11;59.48
67052;BME280;53957;47.222;18.670;2023-06-22T11:05:05;100379.00;;;33.31;57.35
67052;BME280;53957;47.222;18.670;2023-06-22T11:08:08;100381.91;;;33.23;56.35
67052;BME280;53957;47.222;18.670;2023-06-22T11:11:11;100377.28;;;32.54;56.90
67052;BME280;53957;47.222;18.670;2023-06-22T11:14:14;100369.78;;;32.38;55.85
67052;BME280;53957;47.222;18.670;2023-06-22T11:17:18;100367.16;;;33.30;53.60
67052;BME280;53957;47.222;18.670;2023-06-22T11:20:20;100365.47;;;32.70;58.35
67052;BME280;53957;47.222;18.670;2023-06-22T11:23:23;100358.44;;;32.86;51.69
67052;BME280;53957;47.222;18.670;2023-06-22T11:26:28;100358.22;;;31.70;61.00
67052;BME280;53957;47.222;18.670;2023-06-22T11:29:31;100349.25;;;32.23;58.76
67052;BME280;53957;47.222;18.670;2023-06-22T11:32:39;100346.69;;;32.12;59.92
67052;BME280;53957;47.222;18.670;2023-06-22T11:35:42;100343.38;;;32.21;58.94
67052;BME280;53957;47.222;18.670;2023-06-22T11:38:45;100337.84;;;32.21;58.15
67052;BME280;53957;47.222;18.670;2023-06-22T11:41:48;100333.31;;;32.80;54.03
67052;BME280;53957;47.222;18.670;2023-06-22T11:44:51;100333.91;;;32.55;57.39
67052;BME280;53957;47.222;18.670;2023-06-22T11:47:54;100338.47;;;32.78;54.22
67052;BME280;53957;47.222;18.670;2023-06-22T11:50:57;100334.59;;;32.26;57.58
67052;BME280;53957;47.222;18.670;2023-06-22T11:54:02;100330.47;;;32.34;56.30
67052;BME280;53957;47.222;18.670;2023-06-22T11:57:05;100341.91;;;31.79;59.35
67052;BME280;53957;47.222;18.670;2023-06-22T12:00:09;100333.50;;;32.03;61.06
67052;BME280;53957;47.222;18.670;2023-06-22T12:03:20;100329.44;;;32.78;56.33
67052;BME280;53957;47.222;18.670;2023-06-22T12:06:24;100328.91;;;32.33;61.78
67052;BME280;53957;47.222;18.670;2023-06-22T12:09:27;100332.69;;;32.56;55.45
67052;BME280;53957;47.222;18.670;2023-06-22T12:12:30;100323.22;;;32.04;60.57
67052;BME280;53957;47.222;18.670;2023-06-22T12:15:33;100325.97;;;31.47;60.28
67052;BME280;53957;47.222;18.670;2023-06-22T12:18:39;100329.22;;;31.62;62.32
67052;BME280;53957;47.222;18.670;2023-06-22T12:21:48;100323.44;;;31.56;61.86
67052;BME280;53957;47.222;18.670;2023-06-22T12:24:55;100309.50;;;31.63;65.26
67052;BME280;53957;47.222;18.670;2023-06-22T12:28:04;100314.69;;;31.98;59.20
67052;BME280;53957;47.222;18.670;2023-06-22T12:31:07;100297.00;;;32.49;59.83
67052;BME280;53957;47.222;18.670;2023-06-22T12:34:10;100301.00;;;31.94;57.63
67052;BME280;53957;47.222;18.670;2023-06-22T12:37:13;100302.84;;;32.67;55.25
67052;BME280;53957;47.222;18.670;2023-06-22T12:40:19;100300.44;;;32.53;54.28
67052;BME280;53957;47.222;18.670;2023-06-22T12:43:43;100300.00;;;32.54;56.73
67052;BME280;53957;47.222;18.670;2023-06-22T13:49:53;100248.13;;;31.79;63.55
67052;BME280;53957;47.222;18.670;2023-06-22T13:52:56;100244.59;;;31.79;62.27
67052;BME280;53957;47.222;18.670;2023-06-22T13:55:59;100246.47;;;31.45;60.78
67052;BME280;53957;47.222;18.670;2023-06-22T13:59:02;100245.38;;;31.23;61.57
67052;BME280;53957;47.222;18.670;2023-06-22T14:02:05;100240.81;;;31.89;57.36
67052;BME280;53957;47.222;18.670;2023-06-22T14:05:09;100236.13;;;32.23;58.25
67052;BME280;53957;47.222;18.670;2023-06-22T14:08:11;100234.63;;;32.02;55.59
67052;BME280;53957;47.222;18.670;2023-06-22T14:11:34;100228.06;;;31.59;62.10
67052;BME280;53957;47.222;18.670;2023-06-22T14:14:37;100219.25;;;31.68;60.58
67052;BME280;53957;47.222;18.670;2023-06-22T14:17:40;100218.94;;;31.62;60.97
67052;BME280;53957;47.222;18.670;2023-06-22T14:20:43;100224.97;;;31.57;57.62
67052;BME280;53957;47.222;18.670;2023-06-22T14:23:47;100212.91;;;31.87;60.13
67052;BME280;53957;47.222;18.670;2023-06-22T14:26:52;100218.47;;;31.67;61.09
67052;BME280;53957;47.222;18.670;2023-06-22T14:29:54;100203.50;;;31.85;63.84
67052;BME280;53957;47.222;18.670;2023-06-22T14:32:57;100216.94;;;31.66;63.35
67052;BME280;53957;47.222;18.670;2023-06-22T14:36:00;100208.66;;;32.49;58.70
67052;BME280;53957;47.222;18.670;2023-06-22T14:39:03;100205.22;;;32.11;58.10
67052;BME280;53957;47.222;18.670;2023-06-22T14:42:06;100206.03;;;32.58;57.13
67052;BME280;53957;47.222;18.670;2023-06-22T14:45:09;100199.31;;;32.59;58.06
67052;BME280;53957;47.222;18.670;2023-06-22T14:48:12;100200.50;;;32.74;58.50
67052;BME280;53957;47.222;18.670;2023-06-22T14:51:15;100205.50;;;32.63;57.88
67052;BME280;53957;47.222;18.670;2023-06-22T14:54:19;100207.91;;;32.78;62.50
67052;BME280;53957;47.222;18.670;2023-06-22T14:57:22;100200.31;;;32.65;57.68
67052;BME280;53957;47.222;18.670;2023-06-22T15:00:25;100199.38;;;32.26;57.92
67052;BME280;53957;47.222;18.670;2023-06-22T15:03:30;100200.66;;;32.21;59.65
67052;BME280;53957;47.222;18.670;2023-06-22T15:06:35;100192.81;;;32.20;58.00
67052;BME280;53957;47.222;18.670;2023-06-22T15:09:38;100181.44;;;32.34;57.79
67052;BME280;53957;47.222;18.670;2023-06-22T15:12:45;100182.28;;;32.31;57.41
67052;BME280;53957;47.222;18.670;2023-06-22T15:15:48;100189.00;;;32.47;52.79
67052;BME280;53957;47.222;18.670;2023-06-22T15:18:51;100176.56;;;32.38;56.03
67052;BME280;53957;47.222;18.670;2023-06-22T15:21:54;100179.19;;;32.29;58.07
67052;BME280;53957;47.222;18.670;2023-06-22T15:24:57;100177.62;;;32.28;55.05
67052;BME280;53957;47.222;18.670;2023-06-22T15:28:00;100175.22;;;32.30;59.40
67052;BME280;53957;47.222;18.670;2023-06-22T15:31:03;100171.25;;;32.31;57.23
67052;BME280;53957;47.222;18.670;2023-06-22T15:34:07;100172.97;;;32.25;57.54
67052;BME280;53957;47.222;18.670;2023-06-22T15:37:10;100172.87;;;32.28;58.78
67052;BME280;53957;47.222;18.670;2023-06-22T15:40:12;100170.81;;;32.16;57.72
67052;BME280;53957;47.222;18.670;2023-06-22T15:43:15;100172.63;;;32.39;56.47
67052;BME280;53957;47.222;18.670;2023-06-22T15:46:21;100172.44;;;32.14;59.56
67052;BME280;53957;47.222;18.670;2023-06-22T15:49:25;100168.69;;;32.24;59.82
67052;BME280;53957;47.222;18.670;2023-06-22T15:52:30;100167.47;;;32.08;59.20
67052;BME280;53957;47.222;18.670;2023-06-22T15:55:33;100173.84;;;32.22;58.60
67052;BME280;53957;47.222;18.670;2023-06-22T15:58:37;100166.59;;;32.28;58.77
67052;BME280;53957;47.222;18.670;2023-06-22T16:01:41;100161.19;;;32.54;58.62
67052;BME280;53957;47.222;18.670;2023-06-22T16:04:45;100164.19;;;32.30;61.92
67052;BME280;53957;47.222;18.670;2023-06-22T16:07:49;100168.16;;;31.79;62.48
67052;BME280;53957;47.222;18.670;2023-06-22T16:10:52;100170.75;;;31.70;61.30
67052;BME280;53957;47.222;18.670;2023-06-22T16:13:54;100160.28;;;31.61;61.18
67052;BME280;53957;47.222;18.670;2023-06-22T16:16:57;100159.53;;;31.77;60.33
67052;BME280;53957;47.222;18.670;2023-06-22T16:20:00;100161.25;;;31.55;62.73
67052;BME280;53957;47.222;18.670;2023-06-22T16:23:03;100158.41;;;31.22;65.21
67052;BME280;53957;47.222;18.670;2023-06-22T16:26:06;100152.75;;;31.29;65.55
67052;BME280;53957;47.222;18.670;2023-06-22T16:29:09;100155.16;;;31.27;64.37
67052;BME280;53957;47.222;18.670;2023-06-22T16:32:12;100151.38;;;31.37;64.75
67052;BME280;53957;47.222;18.670;2023-06-22T16:35:17;100140.28;;;31.41;64.79
67052;BME280;53957;47.222;18.670;2023-06-22T16:38:19;100147.81;;;31.00;66.32
67052;BME280;53957;47.222;18.670;2023-06-22T16:41:25;100141.75;;;30.89;68.16
67052;BME280;53957;47.222;18.670;2023-06-22T16:44:29;100141.97;;;30.98;67.58
67052;BME280;53957;47.222;18.670;2023-06-22T16:47:32;100143.66;;;30.92;67.07
67052;BME280;53957;47.222;18.670;2023-06-22T16:50:37;100137.72;;;31.13;67.18
67052;BME280;53957;47.222;18.670;2023-06-22T16:53:40;100146.59;;;31.01;67.37
67052;BME280;53957;47.222;18.670;2023-06-22T16:56:44;100137.09;;;30.65;70.33
67052;BME280;53957;47.222;18.670;2023-06-22T16:59:47;100142.37;;;30.76;69.51
67052;BME280;53957;47.222;18.670;2023-06-22T17:02:50;100142.66;;;30.62;69.91
67052;BME280;53957;47.222;18.670;2023-06-22T17:05:55;100140.69;;;30.82;68.92
67052;BME280;53957;47.222;18.670;2023-06-22T17:09:03;100138.09;;;30.75;70.00
67052;BME280;53957;47.222;18.670;2023-06-22T17:12:07;100134.34;;;30.65;70.29
67052;BME280;53957;47.222;18.670;2023-06-22T17:15:11;100130.44;;;30.43;72.57
67052;BME280;53957;47.222;18.670;2023-06-22T17:18:15;100125.59;;;30.27;74.49
67052;BME280;53957;47.222;18.670;2023-06-22T17:21:22;100123.69;;;30.24;75.96
67052;BME280;53957;47.222;18.670;2023-06-22T17:24:26;100117.63;;;30.56;73.99
67052;BME280;53957;47.222;18.670;2023-06-22T17:27:29;100120.78;;;30.55;73.80
67052;BME280;53957;47.222;18.670;2023-06-22T17:30:32;100110.56;;;30.55;73.47
67052;BME280;53957;47.222;18.670;2023-06-22T17:33:37;100112.94;;;30.09;75.69
67052;BME280;53957;47.222;18.670;2023-06-22T17:36:48;100110.66;;;30.28;74.61
67052;BME280;53957;47.222;18.670;2023-06-22T17:39:52;100108.16;;;30.13;75.38
67052;BME280;53957;47.222;18.670;2023-06-22T17:43:05;100099.31;;;30.02;76.32
67052;BME280;53957;47.222;18.670;2023-06-22T17:46:10;100107.28;;;30.40;75.00
67052;BME280;53957;47.222;18.670;2023-06-22T17:49:13;100104.66;;;30.33;74.37
67052;BME280;53957;47.222;18.670;2023-06-22T17:52:18;100104.56;;;30.16;75.59
67052;BME280;53957;47.222;18.670;2023-06-22T17:55:25;100097.06;;;29.97;76.42
67052;BME280;53957;47.222;18.670;2023-06-22T17:58:28;100101.47;;;30.14;75.72
67052;BME280;53957;47.222;18.670;2023-06-22T18:01:36;100101.59;;;30.07;76.33
67052;BME280;53957;47.222;18.670;2023-06-22T18:04:43;100106.59;;;30.12;76.41
67052;BME280;53957;47.222;18.670;2023-06-22T18:07:47;100102.44;;;29.77;79.23
67052;BME280;53957;47.222;18.670;2023-06-22T18:11:02;100097.94;;;29.90;80.86
67052;BME280;53957;47.222;18.670;2023-06-22T18:14:10;100097.25;;;29.82;82.46
67052;BME280;53957;47.222;18.670;2023-06-22T18:17:20;100095.41;;;29.76;81.53
67052;BME280;53957;47.222;18.670;2023-06-22T18:20:23;100106.16;;;29.66;82.38
67052;BME280;53957;47.222;18.670;2023-06-22T18:23:28;100097.00;;;29.49;83.77
67052;BME280;53957;47.222;18.670;2023-06-22T18:26:38;100090.47;;;29.39;84.63
67052;BME280;53957;47.222;18.670;2023-06-22T18:29:41;100091.72;;;29.04;86.82
67052;BME280;53957;47.222;18.670;2023-06-22T18:32:47;100094.50;;;29.00;87.27
67052;BME280;53957;47.222;18.670;2023-06-22T18:35:52;100106.44;;;28.86;88.94
67052;BME280;53957;47.222;18.670;2023-06-22T18:39:00;100099.06;;;28.83;90.00
67052;BME280;53957;47.222;18.670;2023-06-22T18:42:09;100095.19;;;28.77;89.85
67052;BME280;53957;47.222;18.670;2023-06-22T18:45:22;100096.97;;;28.56;92.19
67052;BME280;53957;47.222;18.670;2023-06-22T18:48:26;100099.09;;;27.96;97.40
67052;BME280;53957;47.222;18.670;2023-06-22T18:51:29;100109.16;;;27.64;100.00
67052;BME280;53957;47.222;18.670;2023-06-22T18:54:48;100101.91;;;27.32;100.00
67052;BME280;53957;47.222;18.670;2023-06-22T18:58:17;100111.03;;;27.08;100.00
67052;BME280;53957;47.222;18.670;2023-06-22T19:01:23;100105.66;;;26.79;100.00
67052;BME280;53957;47.222;18.670;2023-06-22T19:04:30;100117.78;;;26.67;100.00
67052;BME280;53957;47.222;18.670;2023-06-22T19:11:11;100132.59;;;26.84;100.00
67052;BME280;53957;47.222;18.670;2023-06-22T19:14:19;100131.44;;;26.71;100.00
67052;BME280;53957;47.222;18.670;2023-06-22T19:17:23;100125.28;;;26.30;100.00
67052;BME280;53957;47.222;18.670;2023-06-22T19:20:31;100128.81;;;26.20;100.00
67052;BME280;53957;47.222;18.670;2023-06-22T19:23:42;100138.19;;;26.26;100.00
67052;BME280;53957;47.222;18.670;2023-06-22T19:26:50;100131.16;;;26.18;100.00
67052;BME280;53957;47.222;18.670;2023-06-22T19:29:53;100140.88;;;26.04;100.00
67052;BME280;53957;47.222;18.670;2023-06-22T19:32:58;100144.38;;;26.05;100.00
67052;BME280;53957;47.222;18.670;2023-06-22T20:49:48;100127.12;;;25.39;100.00
67052;BME280;53957;47.222;18.670;2023-06-22T20:52:52;100109.13;;;25.24;100.00
67052;BME280;53957;47.222;18.670;2023-06-22T20:55:57;100118.50;;;25.27;100.00
67052;BME280;53957;47.222;18.670;2023-06-22T20:59:01;100115.37;;;25.24;100.00
67052;BME280;53957;47.222;18.670;2023-06-22T21:02:04;100123.91;;;25.16;100.00
67052;BME280;53957;47.222;18.670;2023-06-22T21:05:08;100125.44;;;25.06;100.00
67052;BME280;53957;47.222;18.670;2023-06-22T21:08:11;100125.50;;;25.17;100.00
67052;BME280;53957;47.222;18.670;2023-06-22T21:11:14;100126.25;;;25.14;100.00
67052;BME280;53957;47.222;18.670;2023-06-22T21:14:17;100123.19;;;25.30;100.00
67052;BME280;53957;47.222;18.670;2023-06-22T21:17:22;100117.19;;;24.91;100.00
67052;BME280;53957;47.222;18.670;2023-06-22T21:20:28;100117.66;;;25.08;100.00
67052;BME280;53957;47.222;18.670;2023-06-22T21:23:32;100119.19;;;25.02;100.00
67052;BME280;53957;47.222;18.670;2023-06-22T21:26:37;100124.22;;;24.92;100.00
67052;BME280;53957;47.222;18.670;2023-06-22T21:29:43;100123.88;;;25.05;100.00
67052;BME280;53957;47.222;18.670;2023-06-22T21:32:47;100116.78;;;24.86;100.00
67052;BME280;53957;47.222;18.670;2023-06-22T21:35:51;100123.41;;;24.85;100.00
67052;BME280;53957;47.222;18.670;2023-06-22T21:38:54;100119.47;;;24.75;100.00
67052;BME280;53957;47.222;18.670;2023-06-22T21:41:57;100113.69;;;24.87;100.00
67052;BME280;53957;47.222;18.670;2023-06-22T21:45:00;100110.41;;;24.60;100.00
67052;BME280;53957;47.222;18.670;2023-06-22T21:48:05;100105.00;;;24.67;100.00
67052;BME280;53957;47.222;18.670;2023-06-22T21:51:08;100106.19;;;24.66;100.00
67052;BME280;53957;47.222;18.670;2023-06-22T21:54:11;100105.03;;;24.71;100.00
67052;BME280;53957;47.222;18.670;2023-06-22T21:57:17;100099.84;;;24.51;100.00
67052;BME280;53957;47.222;18.670;2023-06-22T22:00:26;100109.19;;;24.54;100.00
67052;BME280;53957;47.222;18.670;2023-06-22T22:03:29;100105.22;;;24.40;100.00
67052;BME280;53957;47.222;18.670;2023-06-22T22:06:32;100100.03;;;24.24;100.00
67052;BME280;53957;47.222;18.670;2023-06-22T22:09:36;100093.06;;;24.31;100.00
67052;BME280;53957;47.222;18.670;2023-06-22T22:12:39;100096.16;;;24.25;100.00
67052;BME280;53957;47.222;18.670;2023-06-22T22:15:44;100092.31;;;24.30;100.00
67052;BME280;53957;47.222;18.670;2023-06-22T22:18:47;100092.25;;;24.23;100.00
67052;BME280;53957;47.222;18.670;2023-06-22T22:22:06;100079.31;;;24.09;100.00
67052;BME280;53957;47.222;18.670;2023-06-22T22:25:09;100081.66;;;24.10;100.00
67052;BME280;53957;47.222;18.670;2023-06-22T22:28:12;100079.12;;;23.87;100.00
67052;BME280;53957;47.222;18.670;2023-06-22T22:31:15;100076.41;;;23.91;100.00
67052;BME280;53957;47.222;18.670;2023-06-22T22:34:18;100075.78;;;24.05;100.00
67052;BME280;53957;47.222;18.670;2023-06-22T22:37:21;100066.22;;;23.77;100.00
67052;BME280;53957;47.222;18.670;2023-06-22T22:40:25;100056.72;;;23.60;100.00
67052;BME280;53957;47.222;18.670;2023-06-22T22:43:27;100049.63;;;23.52;100.00
67052;BME280;53957;47.222;18.670;2023-06-22T22:46:31;100040.75;;;23.58;100.00
67052;BME280;53957;47.222;18.670;2023-06-22T22:49:36;100038.72;;;23.48;100.00
67052;BME280;53957;47.222;18.670;2023-06-22T22:52:39;100037.25;;;23.58;100.00
67052;BME280;53957;47.222;18.670;2023-06-22T22:55:46;100028.41;;;23.68;100.00
67052;BME280;53957;47.222;18.670;2023-06-22T22:58:50;100032.19;;;23.56;100.00
67052;BME280;53957;47.222;18.670;2023-06-22T23:01:52;100027.16;;;23.58;100.00
67052;BME280;53957;47.222;18.670;2023-06-22T23:04:59;100018.00;;;23.36;100.00
67052;BME280;53957;47.222;18.670;2023-06-22T23:08:02;100006.84;;;23.48;100.00
67052;BME280;53957;47.222;18.670;2023-06-22T23:11:06;100009.78;;;23.29;100.00
67052;BME280;53957;47.222;18.670;2023-06-22T23:14:09;100007.06;;;23.29;100.00
67052;BME280;53957;47.222;18.670;2023-06-22T23:17:12;99997.75;;;23.30;100.00
67052;BME280;53957;47.222;18.670;2023-06-22T23:20:15;99997.41;;;23.35;100.00
67052;BME280;53957;47.222;18.670;2023-06-22T23:23:21;99979.50;;;23.34;100.00
67052;BME280;53957;47.222;18.670;2023-06-22T23:26:24;99974.78;;;23.27;100.00
67052;BME280;53957;47.222;18.670;2023-06-22T23:29:28;99968.72;;;23.07;100.00
67052;BME280;53957;47.222;18.670;2023-06-22T23:32:30;99969.87;;;23.06;100.00
67052;BME280;53957;47.222;18.670;2023-06-22T23:35:33;99967.16;;;23.06;100.00
67052;BME280;53957;47.222;18.670;2023-06-22T23:38:36;99969.13;;;23.09;100.00
67052;BME280;53957;47.222;18.670;2023-06-22T23:41:45;99959.06;;;23.13;100.00
67052;BME280;53957;47.222;18.670;2023-06-22T23:44:47;99955.06;;;23.00;100.00
67052;BME280;53957;47.222;18.670;2023-06-22T23:47:51;99960.44;;;22.96;100.00
67052;BME280;53957;47.222;18.670;2023-06-22T23:50:54;99964.31;;;22.92;100.00
67052;BME280;53957;47.222;18.670;2023-06-22T23:53:57;99957.66;;;22.86;100.00
67052;BME280;53957;47.222;18.670;2023-06-22T23:57:00;99954.00;;;22.74;100.00
